sensor_id;sensor_type;location;lat;lon;timestamp;P1;durP1;ratioP1;P2;durP2;ratioP2
64313;SDS011;50650;48.180;11.524;2023-06-22T00:02:03;6.32;;;3.08;;
64313;SDS011;50650;48.180;11.524;2023-06-22T00:04:30;5.85;;;3.35;;
64313;SDS011;50650;48.180;11.524;2023-06-22T00:07:00;6.63;;;3.45;;
64313;SDS011;50650;48.180;11.524;2023-06-22T00:09:26;6.22;;;3.03;;
64313;SDS011;50650;48.180;11.524;2023-06-22T00:11:54;7.95;;;3.33;;
64313;SDS011;50650;48.180;11.524;2023-06-22T00:14:20;6.53;;;2.95;;
64313;SDS011;50650;48.180;11.524;2023-06-22T00:16:50;7.32;;;3.60;;
64313;SDS011;50650;48.180;11.524;2023-06-22T00:19:19;9.57;;;3.63;;
64313;SDS011;50650;48.180;11.524;2023-06-22T00:21:46;8.88;;;3.28;;
64313;SDS011;50650;48.180;11.524;2023-06-22T00:24:17;9.98;;;3.20;;
64313;SDS011;50650;48.180;11.524;2023-06-22T00:26:44;7.43;;;3.08;;
64313;SDS011;50650;48.180;11.524;2023-06-22T00:29:11;7.65;;;2.88;;
64313;SDS011;50650;48.180;11.524;2023-06-22T00:31:41;8.32;;;3.38;;
64313;SDS011;50650;48.180;11.524;2023-06-22T00:34:07;6.57;;;3.25;;
64313;SDS011;50650;48.180;11.524;2023-06-22T00:36:34;9.75;;;3.65;;
64313;SDS011;50650;48.180;11.524;2023-06-22T00:39:00;8.40;;;3.28;;
64313;SDS011;50650;48.180;11.524;2023-06-22T00:41:27;7.07;;;3.00;;
64313;SDS011;50650;48.180;11.524;2023-06-22T00:43:54;7.97;;;3.00;;
64313;SDS011;50650;48.180;11.524;2023-06-22T00:46:22;5.40;;;2.63;;
64313;SDS011;50650;48.180;11.524;2023-06-22T00:48:49;7.00;;;3.60;;
64313;SDS011;50650;48.180;11.524;2023-06-22T00:51:16;8.00;;;3.35;;
64313;SDS011;50650;48.180;11.524;2023-06-22T00:53:42;7.05;;;2.75;;
64313;SDS011;50650;48.180;11.524;2023-06-22T00:56:09;9.23;;;2.88;;
64313;SDS011;50650;48.180;11.524;2023-06-22T00:58:37;6.32;;;2.90;;
64313;SDS011;50650;48.180;11.524;2023-06-22T01:01:06;9.75;;;3.42;;
64313;SDS011;50650;48.180;11.524;2023-06-22T01:03:34;9.60;;;3.00;;
64313;SDS011;50650;48.180;11.524;2023-06-22T01:06:02;5.50;;;2.63;;
64313;SDS011;50650;48.180;11.524;2023-06-22T01:08:38;6.82;;;3.03;;
64313;SDS011;50650;48.180;11.524;2023-06-22T01:11:09;7.82;;;2.95;;
64313;SDS011;50650;48.180;11.524;2023-06-22T01:13:40;12.45;;;3.00;;
64313;SDS011;50650;48.180;11.524;2023-06-22T01:16:10;6.53;;;3.30;;
64313;SDS011;50650;48.180;11.524;2023-06-22T01:18:41;7.32;;;2.95;;
64313;SDS011;50650;48.180;11.524;2023-06-22T01:21:09;7.25;;;3.20;;
64313;SDS011;50650;48.180;11.524;2023-06-22T01:23:46;7.70;;;3.65;;
64313;SDS011;50650;48.180;11.524;2023-06-22T01:26:18;8.07;;;3.28;;
64313;SDS011;50650;48.180;11.524;2023-06-22T01:28:49;9.68;;;3.40;;
64313;SDS011;50650;48.180;11.524;2023-06-22T01:31:17;6.97;;;2.90;;
64313;SDS011;50650;48.180;11.524;2023-06-22T01:33:49;11.63;;;4.47;;
64313;SDS011;50650;48.180;11.524;2023-06-22T01:36:17;8.52;;;3.33;;
64313;SDS011;50650;48.180;11.524;2023-06-22T01:38:44;7.47;;;3.25;;
64313;SDS011;50650;48.180;11.524;2023-06-22T01:41:12;6.15;;;3.50;;
64313;SDS011;50650;48.180;11.524;2023-06-22T01:43:38;8.68;;;3.28;;
64313;SDS011;50650;48.180;11.524;2023-06-22T01:46:06;8.98;;;3.88;;
64313;SDS011;50650;48.180;11.524;2023-06-22T01:48:33;9.68;;;4.13;;
64313;SDS011;50650;48.180;11.524;2023-06-22T01:50:59;8.45;;;3.30;;
64313;SDS011;50650;48.180;11.524;2023-06-22T01:53:26;6.38;;;3.10;;
64313;SDS011;50650;48.180;11.524;2023-06-22T01:55:52;7.47;;;3.33;;
64313;SDS011;50650;48.180;11.524;2023-06-22T01:58:19;9.18;;;3.63;;
64313;SDS011;50650;48.180;11.524;2023-06-22T02:00:47;7.68;;;3.03;;
64313;SDS011;50650;48.180;11.524;2023-06-22T02:03:17;7.60;;;2.92;;
64313;SDS011;50650;48.180;11.524;2023-06-22T02:05:46;8.38;;;3.17;;
64313;SDS011;50650;48.180;11.524;2023-06-22T02:08:15;6.43;;;3.55;;
64313;SDS011;50650;48.180;11.524;2023-06-22T02:10:46;8.77;;;3.60;;
64313;SDS011;50650;48.180;11.524;2023-06-22T02:13:12;8.15;;;3.45;;
64313;SDS011;50650;48.180;11.524;2023-06-22T02:15:39;8.10;;;3.15;;
64313;SDS011;50650;48.180;11.524;2023-06-22T02:18:05;7.13;;;3.38;;
64313;SDS011;50650;48.180;11.524;2023-06-22T02:20:34;5.82;;;2.97;;
64313;SDS011;50650;48.180;11.524;2023-06-22T02:23:02;7.22;;;3.13;;
64313;SDS011;50650;48.180;11.524;2023-06-22T02:25:28;7.35;;;3.00;;
64313;SDS011;50650;48.180;11.524;2023-06-22T02:27:56;9.77;;;2.95;;
64313;SDS011;50650;48.180;11.524;2023-06-22T02:30:22;7.32;;;3.17;;
64313;SDS011;50650;48.180;11.524;2023-06-22T02:32:50;9.43;;;3.42;;
64313;SDS011;50650;48.180;11.524;2023-06-22T02:35:24;9.73;;;3.30;;
64313;SDS011;50650;48.180;11.524;2023-06-22T02:37:54;9.40;;;3.40;;
64313;SDS011;50650;48.180;11.524;2023-06-22T02:40:21;13.02;;;2.95;;
64313;SDS011;50650;48.180;11.524;2023-06-22T02:42:47;6.82;;;3.15;;
64313;SDS011;50650;48.180;11.524;2023-06-22T02:45:14;10.90;;;3.40;;
64313;SDS011;50650;48.180;11.524;2023-06-22T02:47:40;10.93;;;3.35;;
64313;SDS011;50650;48.180;11.524;2023-06-22T02:50:07;7.68;;;3.35;;
64313;SDS011;50650;48.180;11.524;2023-06-22T02:52:33;7.50;;;3.60;;
64313;SDS011;50650;48.180;11.524;2023-06-22T02:55:01;7.55;;;3.28;;
64313;SDS011;50650;48.180;11.524;2023-06-22T02:57:28;6.63;;;3.17;;
64313;SDS011;50650;48.180;11.524;2023-06-22T02:59:54;8.45;;;3.40;;
64313;SDS011;50650;48.180;11.524;2023-06-22T03:02:21;7.50;;;3.45;;
64313;SDS011;50650;48.180;11.524;2023-06-22T03:04:47;9.65;;;3.72;;
64313;SDS011;50650;48.180;11.524;2023-06-22T03:07:14;8.43;;;3.42;;
64313;SDS011;50650;48.180;11.524;2023-06-22T03:09:42;9.57;;;4.10;;
64313;SDS011;50650;48.180;11.524;2023-06-22T03:12:10;7.72;;;3.88;;
64313;SDS011;50650;48.180;11.524;2023-06-22T03:14:36;10.80;;;3.50;;
64313;SDS011;50650;48.180;11.524;2023-06-22T03:17:03;8.27;;;3.55;;
64313;SDS011;50650;48.180;11.524;2023-06-22T03:19:30;6.80;;;3.55;;
64313;SDS011;50650;48.180;11.524;2023-06-22T03:21:57;7.78;;;3.75;;
64313;SDS011;50650;48.180;11.524;2023-06-22T03:24:23;10.38;;;4.03;;
64313;SDS011;50650;48.180;11.524;2023-06-22T03:26:49;9.15;;;4.07;;
64313;SDS011;50650;48.180;11.524;2023-06-22T03:29:17;9.15;;;3.63;;
64313;SDS011;50650;48.180;11.524;2023-06-22T03:31:44;6.65;;;3.80;;
64313;SDS011;50650;48.180;11.524;2023-06-22T03:34:10;11.85;;;4.13;;
64313;SDS011;50650;48.180;11.524;2023-06-22T03:36:42;8.10;;;3.67;;
64313;SDS011;50650;48.180;11.524;2023-06-22T03:39:10;6.90;;;3.90;;
64313;SDS011;50650;48.180;11.524;2023-06-22T03:41:36;7.13;;;4.00;;
64313;SDS011;50650;48.180;11.524;2023-06-22T03:44:03;7.63;;;3.80;;
64313;SDS011;50650;48.180;11.524;2023-06-22T03:46:31;8.80;;;4.32;;
64313;SDS011;50650;48.180;11.524;2023-06-22T03:48:57;10.63;;;4.22;;
64313;SDS011;50650;48.180;11.524;2023-06-22T03:51:24;7.78;;;3.95;;
64313;SDS011;50650;48.180;11.524;2023-06-22T03:53:53;7.68;;;3.75;;
64313;SDS011;50650;48.180;11.524;2023-06-22T03:56:20;8.95;;;3.72;;
64313;SDS011;50650;48.180;11.524;2023-06-22T03:58:46;8.60;;;3.90;;
64313;SDS011;50650;48.180;11.524;2023-06-22T04:01:12;13.27;;;3.97;;
64313;SDS011;50650;48.180;11.524;2023-06-22T04:03:40;8.15;;;3.85;;
64313;SDS011;50650;48.180;11.524;2023-06-22T04:06:07;9.02;;;3.97;;
64313;SDS011;50650;48.180;11.524;2023-06-22T04:08:33;9.68;;;3.80;;
64313;SDS011;50650;48.180;11.524;2023-06-22T04:11:00;10.35;;;4.05;;
64313;SDS011;50650;48.180;11.524;2023-06-22T04:13:26;9.55;;;3.83;;
64313;SDS011;50650;48.180;11.524;2023-06-22T04:15:53;7.63;;;3.83;;
64313;SDS011;50650;48.180;11.524;2023-06-22T04:18:19;9.35;;;4.07;;
64313;SDS011;50650;48.180;11.524;2023-06-22T04:20:47;12.73;;;4.07;;
64313;SDS011;50650;48.180;11.524;2023-06-22T04:23:13;10.10;;;4.15;;
64313;SDS011;50650;48.180;11.524;2023-06-22T04:25:40;10.80;;;4.00;;
64313;SDS011;50650;48.180;11.524;2023-06-22T04:28:06;9.93;;;4.05;;
64313;SDS011;50650;48.180;11.524;2023-06-22T04:30:37;17.75;;;4.18;;
64313;SDS011;50650;48.180;11.524;2023-06-22T04:33:11;8.85;;;3.97;;
64313;SDS011;50650;48.180;11.524;2023-06-22T04:35:37;10.65;;;4.20;;
64313;SDS011;50650;48.180;11.524;2023-06-22T04:38:07;9.48;;;4.10;;
64313;SDS011;50650;48.180;11.524;2023-06-22T04:40:34;10.90;;;4.20;;
64313;SDS011;50650;48.180;11.524;2023-06-22T04:43:00;7.35;;;4.05;;
64313;SDS011;50650;48.180;11.524;2023-06-22T04:45:27;9.52;;;4.18;;
64313;SDS011;50650;48.180;11.524;2023-06-22T04:47:54;8.13;;;3.92;;
64313;SDS011;50650;48.180;11.524;2023-06-22T04:50:20;12.25;;;3.97;;
64313;SDS011;50650;48.180;11.524;2023-06-22T04:52:48;13.93;;;4.18;;
64313;SDS011;50650;48.180;11.524;2023-06-22T04:55:17;10.13;;;4.20;;
64313;SDS011;50650;48.180;11.524;2023-06-22T04:57:44;10.93;;;4.20;;
64313;SDS011;50650;48.180;11.524;2023-06-22T05:00:14;7.38;;;4.05;;
64313;SDS011;50650;48.180;11.524;2023-06-22T05:02:42;8.27;;;4.18;;
64313;SDS011;50650;48.180;11.524;2023-06-22T05:05:09;8.52;;;4.68;;
64313;SDS011;50650;48.180;11.524;2023-06-22T05:07:38;11.50;;;4.07;;
64313;SDS011;50650;48.180;11.524;2023-06-22T05:10:10;12.38;;;5.25;;
64313;SDS011;50650;48.180;11.524;2023-06-22T05:12:39;12.70;;;5.22;;
64313;SDS011;50650;48.180;11.524;2023-06-22T05:15:07;12.80;;;4.25;;
64313;SDS011;50650;48.180;11.524;2023-06-22T05:17:34;17.70;;;4.93;;
64313;SDS011;50650;48.180;11.524;2023-06-22T05:20:01;8.88;;;4.25;;
64313;SDS011;50650;48.180;11.524;2023-06-22T05:22:30;10.32;;;4.72;;
64313;SDS011;50650;48.180;11.524;2023-06-22T05:24:56;16.92;;;5.10;;
64313;SDS011;50650;48.180;11.524;2023-06-22T05:27:22;9.82;;;4.57;;
64313;SDS011;50650;48.180;11.524;2023-06-22T05:29:50;9.02;;;4.35;;
64313;SDS011;50650;48.180;11.524;2023-06-22T05:32:17;12.13;;;4.35;;
64313;SDS011;50650;48.180;11.524;2023-06-22T05:34:43;14.93;;;4.30;;
64313;SDS011;50650;48.180;11.524;2023-06-22T05:37:10;10.05;;;4.38;;
64313;SDS011;50650;48.180;11.524;2023-06-22T05:39:37;12.75;;;4.25;;
64313;SDS011;50650;48.180;11.524;2023-06-22T05:42:04;10.65;;;4.65;;
64313;SDS011;50650;48.180;11.524;2023-06-22T05:44:31;7.22;;;4.10;;
64313;SDS011;50650;48.180;11.524;2023-06-22T05:46:59;10.75;;;4.22;;
64313;SDS011;50650;48.180;11.524;2023-06-22T05:49:26;12.80;;;4.97;;
64313;SDS011;50650;48.180;11.524;2023-06-22T05:51:54;13.20;;;5.22;;
64313;SDS011;50650;48.180;11.524;2023-06-22T05:54:21;14.13;;;4.88;;
64313;SDS011;50650;48.180;11.524;2023-06-22T05:56:47;11.32;;;5.30;;
64313;SDS011;50650;48.180;11.524;2023-06-22T05:59:14;14.15;;;4.88;;
64313;SDS011;50650;48.180;11.524;2023-06-22T06:01:43;12.23;;;4.95;;
64313;SDS011;50650;48.180;11.524;2023-06-22T06:04:11;17.77;;;5.60;;
64313;SDS011;50650;48.180;11.524;2023-06-22T06:06:37;11.50;;;4.72;;
64313;SDS011;50650;48.180;11.524;2023-06-22T06:09:04;8.25;;;4.53;;
64313;SDS011;50650;48.180;11.524;2023-06-22T06:11:31;13.30;;;4.55;;
64313;SDS011;50650;48.180;11.524;2023-06-22T06:13:58;17.10;;;4.75;;
64313;SDS011;50650;48.180;11.524;2023-06-22T06:16:24;11.48;;;4.80;;
64313;SDS011;50650;48.180;11.524;2023-06-22T06:18:51;10.70;;;4.85;;
64313;SDS011;50650;48.180;11.524;2023-06-22T06:21:21;12.90;;;5.13;;
64313;SDS011;50650;48.180;11.524;2023-06-22T06:23:50;11.38;;;5.15;;
64313;SDS011;50650;48.180;11.524;2023-06-22T06:26:18;13.20;;;5.00;;
64313;SDS011;50650;48.180;11.524;2023-06-22T06:28:53;16.77;;;5.30;;
64313;SDS011;50650;48.180;11.524;2023-06-22T06:31:19;12.57;;;5.13;;
64313;SDS011;50650;48.180;11.524;2023-06-22T06:33:45;15.60;;;4.82;;
64313;SDS011;50650;48.180;11.524;2023-06-22T06:36:12;11.98;;;5.53;;
64313;SDS011;50650;48.180;11.524;2023-06-22T06:38:40;10.30;;;4.97;;
64313;SDS011;50650;48.180;11.524;2023-06-22T06:41:06;14.90;;;5.10;;
64313;SDS011;50650;48.180;11.524;2023-06-22T06:43:32;13.50;;;5.90;;
64313;SDS011;50650;48.180;11.524;2023-06-22T06:45:59;12.75;;;5.10;;
64313;SDS011;50650;48.180;11.524;2023-06-22T06:48:25;15.75;;;5.50;;
64313;SDS011;50650;48.180;11.524;2023-06-22T06:50:52;10.55;;;5.95;;
64313;SDS011;50650;48.180;11.524;2023-06-22T06:53:18;15.02;;;5.80;;
64313;SDS011;50650;48.180;11.524;2023-06-22T06:55:46;14.48;;;5.50;;
64313;SDS011;50650;48.180;11.524;2023-06-22T06:58:12;8.90;;;5.20;;
64313;SDS011;50650;48.180;11.524;2023-06-22T07:00:40;16.63;;;5.65;;
64313;SDS011;50650;48.180;11.524;2023-06-22T07:03:06;14.45;;;5.90;;
64313;SDS011;50650;48.180;11.524;2023-06-22T07:05:33;12.45;;;5.78;;
64313;SDS011;50650;48.180;11.524;2023-06-22T07:08:00;12.35;;;5.47;;
64313;SDS011;50650;48.180;11.524;2023-06-22T07:10:26;14.57;;;6.22;;
64313;SDS011;50650;48.180;11.524;2023-06-22T07:12:54;17.70;;;5.63;;
64313;SDS011;50650;48.180;11.524;2023-06-22T07:15:22;14.65;;;5.45;;
64313;SDS011;50650;48.180;11.524;2023-06-22T07:17:48;20.13;;;6.78;;
64313;SDS011;50650;48.180;11.524;2023-06-22T07:20:15;18.30;;;5.93;;
64313;SDS011;50650;48.180;11.524;2023-06-22T07:22:43;17.92;;;5.65;;
64313;SDS011;50650;48.180;11.524;2023-06-22T07:25:10;15.63;;;5.38;;
64313;SDS011;50650;48.180;11.524;2023-06-22T07:27:39;17.73;;;5.85;;
64313;SDS011;50650;48.180;11.524;2023-06-22T07:30:12;15.25;;;5.63;;
64313;SDS011;50650;48.180;11.524;2023-06-22T07:32:39;14.77;;;5.45;;
64313;SDS011;50650;48.180;11.524;2023-06-22T07:35:06;16.33;;;6.28;;
64313;SDS011;50650;48.180;11.524;2023-06-22T07:37:33;12.77;;;5.45;;
64313;SDS011;50650;48.180;11.524;2023-06-22T07:40:00;11.85;;;4.85;;
64313;SDS011;50650;48.180;11.524;2023-06-22T07:42:29;12.45;;;5.22;;
64313;SDS011;50650;48.180;11.524;2023-06-22T07:44:57;16.55;;;5.60;;
64313;SDS011;50650;48.180;11.524;2023-06-22T07:47:25;13.43;;;5.05;;
64313;SDS011;50650;48.180;11.524;2023-06-22T07:49:53;13.65;;;5.55;;
64313;SDS011;50650;48.180;11.524;2023-06-22T07:52:22;19.23;;;5.25;;
64313;SDS011;50650;48.180;11.524;2023-06-22T07:54:52;22.33;;;5.32;;
64313;SDS011;50650;48.180;11.524;2023-06-22T07:57:18;16.17;;;5.35;;
64313;SDS011;50650;48.180;11.524;2023-06-22T07:59:45;11.35;;;5.18;;
64313;SDS011;50650;48.180;11.524;2023-06-22T08:02:11;12.18;;;5.68;;
64313;SDS011;50650;48.180;11.524;2023-06-22T08:04:39;15.27;;;5.65;;
64313;SDS011;50650;48.180;11.524;2023-06-22T08:07:06;11.10;;;4.97;;
64313;SDS011;50650;48.180;11.524;2023-06-22T08:09:32;15.88;;;5.97;;
64313;SDS011;50650;48.180;11.524;2023-06-22T08:11:59;16.33;;;5.72;;
64313;SDS011;50650;48.180;11.524;2023-06-22T08:14:25;15.55;;;5.88;;
64313;SDS011;50650;48.180;11.524;2023-06-22T08:16:52;17.45;;;5.38;;
64313;SDS011;50650;48.180;11.524;2023-06-22T08:19:18;14.27;;;4.88;;
64313;SDS011;50650;48.180;11.524;2023-06-22T08:21:46;13.90;;;5.78;;
64313;SDS011;50650;48.180;11.524;2023-06-22T08:24:12;13.07;;;5.45;;
64313;SDS011;50650;48.180;11.524;2023-06-22T08:26:39;15.32;;;4.93;;
64313;SDS011;50650;48.180;11.524;2023-06-22T08:29:05;11.63;;;5.20;;
64313;SDS011;50650;48.180;11.524;2023-06-22T08:31:32;16.70;;;5.03;;
64313;SDS011;50650;48.180;11.524;2023-06-22T08:33:59;17.05;;;5.32;;
64313;SDS011;50650;48.180;11.524;2023-06-22T08:36:25;14.18;;;4.90;;
64313;SDS011;50650;48.180;11.524;2023-06-22T08:38:56;17.45;;;5.10;;
64313;SDS011;50650;48.180;11.524;2023-06-22T08:41:26;14.40;;;5.05;;
64313;SDS011;50650;48.180;11.524;2023-06-22T08:43:52;13.68;;;5.63;;
64313;SDS011;50650;48.180;11.524;2023-06-22T08:46:19;14.10;;;5.28;;
64313;SDS011;50650;48.180;11.524;2023-06-22T08:48:48;14.40;;;4.97;;
64313;SDS011;50650;48.180;11.524;2023-06-22T08:51:15;15.20;;;5.43;;
64313;SDS011;50650;48.180;11.524;2023-06-22T08:53:42;15.73;;;5.57;;
64313;SDS011;50650;48.180;11.524;2023-06-22T08:56:12;13.32;;;6.00;;
64313;SDS011;50650;48.180;11.524;2023-06-22T08:58:39;12.52;;;5.50;;
64313;SDS011;50650;48.180;11.524;2023-06-22T09:01:05;16.88;;;5.07;;
64313;SDS011;50650;48.180;11.524;2023-06-22T09:03:31;14.50;;;5.28;;
64313;SDS011;50650;48.180;11.524;2023-06-22T09:06:01;17.92;;;5.82;;
64313;SDS011;50650;48.180;11.524;2023-06-22T09:08:30;21.30;;;5.43;;
64313;SDS011;50650;48.180;11.524;2023-06-22T09:10:57;15.30;;;5.03;;
64313;SDS011;50650;48.180;11.524;2023-06-22T09:13:25;13.70;;;5.07;;
64313;SDS011;50650;48.180;11.524;2023-06-22T09:15:54;20.50;;;5.78;;
64313;SDS011;50650;48.180;11.524;2023-06-22T09:18:21;14.80;;;5.38;;
64313;SDS011;50650;48.180;11.524;2023-06-22T09:20:47;19.63;;;4.80;;
64313;SDS011;50650;48.180;11.524;2023-06-22T09:23:14;20.92;;;5.60;;
64313;SDS011;50650;48.180;11.524;2023-06-22T09:25:41;17.25;;;4.93;;
64313;SDS011;50650;48.180;11.524;2023-06-22T09:28:07;17.40;;;5.50;;
64313;SDS011;50650;48.180;11.524;2023-06-22T09:30:35;16.42;;;5.65;;
64313;SDS011;50650;48.180;11.524;2023-06-22T09:33:01;14.23;;;5.15;;
64313;SDS011;50650;48.180;11.524;2023-06-22T09:35:28;14.65;;;4.88;;
64313;SDS011;50650;48.180;11.524;2023-06-22T09:37:54;18.65;;;4.57;;
64313;SDS011;50650;48.180;11.524;2023-06-22T09:40:20;12.52;;;5.00;;
64313;SDS011;50650;48.180;11.524;2023-06-22T09:42:47;16.77;;;5.10;;
64313;SDS011;50650;48.180;11.524;2023-06-22T09:45:13;14.05;;;4.43;;
64313;SDS011;50650;48.180;11.524;2023-06-22T09:47:41;14.00;;;4.65;;
64313;SDS011;50650;48.180;11.524;2023-06-22T09:50:07;11.45;;;4.63;;
64313;SDS011;50650;48.180;11.524;2023-06-22T09:52:34;15.45;;;5.38;;
64313;SDS011;50650;48.180;11.524;2023-06-22T09:55:01;14.82;;;4.78;;
64313;SDS011;50650;48.180;11.524;2023-06-22T09:57:28;13.13;;;5.00;;
64313;SDS011;50650;48.180;11.524;2023-06-22T09:59:55;18.23;;;5.15;;
64313;SDS011;50650;48.180;11.524;2023-06-22T10:02:21;12.27;;;4.50;;
64313;SDS011;50650;48.180;11.524;2023-06-22T10:04:49;16.27;;;4.93;;
64313;SDS011;50650;48.180;11.524;2023-06-22T10:07:16;19.73;;;4.78;;
64313;SDS011;50650;48.180;11.524;2023-06-22T10:09:42;14.02;;;4.63;;
64313;SDS011;50650;48.180;11.524;2023-06-22T10:12:11;19.70;;;5.53;;
64313;SDS011;50650;48.180;11.524;2023-06-22T10:14:41;14.30;;;4.90;;
64313;SDS011;50650;48.180;11.524;2023-06-22T10:17:07;16.98;;;5.43;;
64313;SDS011;50650;48.180;11.524;2023-06-22T10:19:34;17.67;;;4.80;;
64313;SDS011;50650;48.180;11.524;2023-06-22T10:22:04;15.25;;;5.07;;
64313;SDS011;50650;48.180;11.524;2023-06-22T10:24:30;12.98;;;4.22;;
64313;SDS011;50650;48.180;11.524;2023-06-22T10:26:57;15.48;;;4.78;;
64313;SDS011;50650;48.180;11.524;2023-06-22T10:29:23;14.77;;;4.55;;
64313;SDS011;50650;48.180;11.524;2023-06-22T10:31:50;16.90;;;5.32;;
64313;SDS011;50650;48.180;11.524;2023-06-22T10:34:23;13.18;;;4.82;;
64313;SDS011;50650;48.180;11.524;2023-06-22T10:36:50;13.68;;;4.47;;
64313;SDS011;50650;48.180;11.524;2023-06-22T10:39:21;18.27;;;5.00;;
64313;SDS011;50650;48.180;11.524;2023-06-22T10:41:47;13.15;;;4.75;;
64313;SDS011;50650;48.180;11.524;2023-06-22T10:44:14;15.90;;;5.07;;
64313;SDS011;50650;48.180;11.524;2023-06-22T10:46:40;19.48;;;5.00;;
64313;SDS011;50650;48.180;11.524;2023-06-22T10:49:06;18.42;;;5.15;;
64313;SDS011;50650;48.180;11.524;2023-06-22T10:51:33;13.75;;;4.78;;
64313;SDS011;50650;48.180;11.524;2023-06-22T10:53:59;17.65;;;5.25;;
64313;SDS011;50650;48.180;11.524;2023-06-22T10:56:27;12.07;;;4.40;;
64313;SDS011;50650;48.180;11.524;2023-06-22T10:58:53;16.10;;;5.07;;
64313;SDS011;50650;48.180;11.524;2023-06-22T11:01:20;15.38;;;4.93;;
64313;SDS011;50650;48.180;11.524;2023-06-22T11:03:48;12.13;;;5.18;;
64313;SDS011;50650;48.180;11.524;2023-06-22T11:06:15;15.05;;;4.63;;
64313;SDS011;50650;48.180;11.524;2023-06-22T11:08:43;14.15;;;4.78;;
64313;SDS011;50650;48.180;11.524;2023-06-22T11:11:10;12.70;;;4.45;;
64313;SDS011;50650;48.180;11.524;2023-06-22T11:13:38;13.85;;;5.28;;
64313;SDS011;50650;48.180;11.524;2023-06-22T11:16:04;18.40;;;5.03;;
64313;SDS011;50650;48.180;11.524;2023-06-22T11:18:31;14.82;;;5.35;;
64313;SDS011;50650;48.180;11.524;2023-06-22T11:20:58;18.00;;;4.80;;
64313;SDS011;50650;48.180;11.524;2023-06-22T11:23:24;15.00;;;4.68;;
64313;SDS011;50650;48.180;11.524;2023-06-22T11:25:52;12.55;;;4.53;;
64313;SDS011;50650;48.180;11.524;2023-06-22T11:28:19;19.40;;;5.10;;
64313;SDS011;50650;48.180;11.524;2023-06-22T11:30:47;15.95;;;5.03;;
64313;SDS011;50650;48.180;11.524;2023-06-22T11:33:16;15.85;;;4.82;;
64313;SDS011;50650;48.180;11.524;2023-06-22T11:35:43;12.90;;;4.57;;
64313;SDS011;50650;48.180;11.524;2023-06-22T11:38:09;15.80;;;4.78;;
64313;SDS011;50650;48.180;11.524;2023-06-22T11:40:38;15.20;;;5.03;;
64313;SDS011;50650;48.180;11.524;2023-06-22T11:43:04;17.70;;;5.25;;
64313;SDS011;50650;48.180;11.524;2023-06-22T11:45:30;13.52;;;4.90;;
64313;SDS011;50650;48.180;11.524;2023-06-22T11:47:58;11.23;;;4.68;;
64313;SDS011;50650;48.180;11.524;2023-06-22T11:50:25;14.48;;;4.90;;
64313;SDS011;50650;48.180;11.524;2023-06-22T11:52:51;15.38;;;4.80;;
64313;SDS011;50650;48.180;11.524;2023-06-22T11:55:18;13.05;;;4.57;;
64313;SDS011;50650;48.180;11.524;2023-06-22T11:57:52;16.80;;;4.97;;
64313;SDS011;50650;48.180;11.524;2023-06-22T12:00:19;12.00;;;5.20;;
64313;SDS011;50650;48.180;11.524;2023-06-22T12:02:48;18.48;;;4.75;;
64313;SDS011;50650;48.180;11.524;2023-06-22T12:05:17;19.10;;;5.53;;
64313;SDS011;50650;48.180;11.524;2023-06-22T12:07:45;20.67;;;4.93;;
64313;SDS011;50650;48.180;11.524;2023-06-22T12:10:11;18.40;;;5.50;;
64313;SDS011;50650;48.180;11.524;2023-06-22T12:12:38;15.25;;;5.22;;
64313;SDS011;50650;48.180;11.524;2023-06-22T12:15:04;12.25;;;4.80;;
64313;SDS011;50650;48.180;11.524;2023-06-22T12:17:32;15.68;;;4.72;;
64313;SDS011;50650;48.180;11.524;2023-06-22T12:19:58;17.80;;;5.07;;
64313;SDS011;50650;48.180;11.524;2023-06-22T12:22:29;20.20;;;4.72;;
64313;SDS011;50650;48.180;11.524;2023-06-22T12:24:55;17.00;;;5.30;;
64313;SDS011;50650;48.180;11.524;2023-06-22T12:27:22;15.25;;;4.75;;
64313;SDS011;50650;48.180;11.524;2023-06-22T12:29:48;13.35;;;5.28;;
64313;SDS011;50650;48.180;11.524;2023-06-22T12:32:14;15.57;;;5.00;;
64313;SDS011;50650;48.180;11.524;2023-06-22T12:34:41;15.35;;;4.57;;
64313;SDS011;50650;48.180;11.524;2023-06-22T12:37:08;20.23;;;5.38;;
64313;SDS011;50650;48.180;11.524;2023-06-22T12:39:36;13.48;;;4.85;;
64313;SDS011;50650;48.180;11.524;2023-06-22T12:42:03;26.05;;;5.25;;
64313;SDS011;50650;48.180;11.524;2023-06-22T12:44:29;17.65;;;4.50;;
64313;SDS011;50650;48.180;11.524;2023-06-22T12:46:56;19.50;;;4.65;;
64313;SDS011;50650;48.180;11.524;2023-06-22T12:49:22;14.52;;;4.65;;
64313;SDS011;50650;48.180;11.524;2023-06-22T12:51:49;19.63;;;5.07;;
64313;SDS011;50650;48.180;11.524;2023-06-22T12:54:15;15.45;;;4.88;;
64313;SDS011;50650;48.180;11.524;2023-06-22T12:56:45;12.40;;;4.80;;
64313;SDS011;50650;48.180;11.524;2023-06-22T12:59:12;15.63;;;5.00;;
64313;SDS011;50650;48.180;11.524;2023-06-22T13:01:38;12.73;;;4.50;;
64313;SDS011;50650;48.180;11.524;2023-06-22T13:04:05;16.80;;;4.57;;
64313;SDS011;50650;48.180;11.524;2023-06-22T13:06:31;17.52;;;4.75;;
64313;SDS011;50650;48.180;11.524;2023-06-22T13:08:58;11.35;;;4.40;;
64313;SDS011;50650;48.180;11.524;2023-06-22T13:11:24;11.88;;;4.43;;
64313;SDS011;50650;48.180;11.524;2023-06-22T13:13:52;23.63;;;5.32;;
64313;SDS011;50650;48.180;11.524;2023-06-22T13:16:18;15.55;;;4.45;;
64313;SDS011;50650;48.180;11.524;2023-06-22T13:18:45;11.10;;;4.20;;
64313;SDS011;50650;48.180;11.524;2023-06-22T13:21:11;14.95;;;4.65;;
64313;SDS011;50650;48.180;11.524;2023-06-22T13:23:38;18.65;;;4.30;;
64313;SDS011;50650;48.180;11.524;2023-06-22T13:26:05;17.05;;;4.00;;
64313;SDS011;50650;48.180;11.524;2023-06-22T13:28:31;14.18;;;4.70;;
64313;SDS011;50650;48.180;11.524;2023-06-22T13:31:00;17.15;;;5.05;;
64313;SDS011;50650;48.180;11.524;2023-06-22T13:33:27;12.82;;;4.72;;
64313;SDS011;50650;48.180;11.524;2023-06-22T13:35:53;15.75;;;4.95;;
64313;SDS011;50650;48.180;11.524;2023-06-22T13:38:20;12.05;;;4.28;;
64313;SDS011;50650;48.180;11.524;2023-06-22T13:40:47;17.02;;;4.38;;
64313;SDS011;50650;48.180;11.524;2023-06-22T13:43:14;24.58;;;4.50;;
64313;SDS011;50650;48.180;11.524;2023-06-22T13:45:40;23.33;;;4.80;;
64313;SDS011;50650;48.180;11.524;2023-06-22T13:48:09;16.25;;;4.78;;
64313;SDS011;50650;48.180;11.524;2023-06-22T13:50:36;20.13;;;4.75;;
64313;SDS011;50650;48.180;11.524;2023-06-22T13:53:02;12.93;;;4.30;;
64313;SDS011;50650;48.180;11.524;2023-06-22T13:55:28;13.98;;;4.57;;
64313;SDS011;50650;48.180;11.524;2023-06-22T13:57:59;15.73;;;4.55;;
64313;SDS011;50650;48.180;11.524;2023-06-22T14:00:25;15.07;;;4.35;;
64313;SDS011;50650;48.180;11.524;2023-06-22T14:02:52;22.55;;;4.97;;
64313;SDS011;50650;48.180;11.524;2023-06-22T14:05:21;18.02;;;4.60;;
64313;SDS011;50650;48.180;11.524;2023-06-22T14:07:47;14.88;;;4.88;;
64313;SDS011;50650;48.180;11.524;2023-06-22T14:10:13;16.42;;;4.63;;
64313;SDS011;50650;48.180;11.524;2023-06-22T14:12:40;15.70;;;4.60;;
64313;SDS011;50650;48.180;11.524;2023-06-22T14:15:06;14.23;;;4.82;;
64313;SDS011;50650;48.180;11.524;2023-06-22T14:17:33;13.65;;;4.47;;
64313;SDS011;50650;48.180;11.524;2023-06-22T14:19:59;15.23;;;4.55;;
64313;SDS011;50650;48.180;11.524;2023-06-22T14:22:27;17.23;;;4.50;;
64313;SDS011;50650;48.180;11.524;2023-06-22T14:24:54;16.40;;;4.35;;
64313;SDS011;50650;48.180;11.524;2023-06-22T14:27:22;16.58;;;4.90;;